Time;durP1;ratioP1;P1;durP2;ratioP2;P2;SDS_P1;SDS_P2;PMS_P1;PMS_P2;Temp;Humidity;BMP_temperature;BMP_pressure;BME280_temperature;BME280_humidity;BME280_pressure;Samples;Min_cycle;Max_cycle;Signal;HPM_P1;HPM_P2
2023/06/14 00:02:03;;;;;;;;;;;;;;;20.52;46.22;-18578.72;5070267;28;19917;-77
2023/06/14 00:04:28;;;;;;;;;;;;;;;20.36;45.97;-18574.47;5065026;28;19927;-77
2023/06/14 00:06:56;;;;;;;;;;;;;;;20.24;46.77;-18571.22;5067426;28;19929;-78
2023/06/14 00:09:21;;;;;;;;;;;;;;;20.22;47.03;-18570.69;5067314;28;19942;-77
2023/06/14 00:11:47;;;;;;;;;;;;;;;20.00;48.04;-18564.97;5068401;28;21157;-78
2023/06/14 00:14:12;;;;;;;;;;;;;;;19.75;49.21;-18558.28;5069771;28;20418;-77
2023/06/14 00:16:38;;;;;;;;;;;;;;;19.72;49.62;-18557.34;5067109;28;20323;-77
2023/06/14 00:19:04;;;;;;;;;;;;;;;19.69;49.45;-18556.66;5069814;28;19928;-77
2023/06/14 00:21:30;;;;;;;;;;;;;;;19.68;50.32;-18556.25;5069910;28;19920;-78
2023/06/14 00:23:55;;;;;;;;;;;;;;;19.53;50.98;-18552.28;5072314;28;19947;-77
2023/06/14 00:26:21;;;;;;;;;;;;;;;19.39;51.31;-18548.75;5072876;28;19957;-77
2023/06/14 00:28:46;;;;;;;;;;;;;;;19.36;52.37;-18547.78;5077994;28;20109;-77
2023/06/14 00:31:11;;;;;;;;;;;;;;;19.30;52.49;-18546.16;5076464;28;19928;-78
2023/06/14 00:33:36;;;;;;;;;;;;;;;19.27;53.46;-18545.34;5078412;28;19920;-77
2023/06/14 00:36:01;;;;;;;;;;;;;;;19.23;53.52;-18544.25;5076065;28;19916;-77
2023/06/14 00:38:27;;;;;;;;;;;;;;;19.21;54.44;-18543.72;5074344;28;19942;-76
2023/06/14 00:40:52;;;;;;;;;;;;;;;19.16;53.80;-18542.47;5075742;28;19943;-77
2023/06/14 00:43:17;;;;;;;;;;;;;;;19.12;55.08;-18541.38;5074897;28;19924;-77
2023/06/14 00:45:44;;;;;;;;;;;;;;;19.07;54.82;-18540.16;5073388;28;19948;-77
2023/06/14 00:48:10;;;;;;;;;;;;;;;19.04;55.37;-18539.34;5074029;28;19923;-77
2023/06/14 00:50:36;;;;;;;;;;;;;;;18.93;55.73;-18536.34;5082472;28;19917;-77
2023/06/14 00:53:01;;;;;;;;;;;;;;;18.90;56.42;-18535.53;5072716;28;19938;-77
2023/06/14 00:55:27;;;;;;;;;;;;;;;18.86;57.06;-18534.56;5073996;28;19920;-78
2023/06/14 00:57:54;;;;;;;;;;;;;;;18.87;56.37;-18534.72;5078740;28;20273;-78
2023/06/14 01:00:19;;;;;;;;;;;;;;;18.86;56.49;-18534.44;5076285;28;19955;-78
2023/06/14 01:02:44;;;;;;;;;;;;;;;18.84;57.15;-18533.91;5075992;28;19920;-78
2023/06/14 01:05:10;;;;;;;;;;;;;;;18.70;58.09;-18530.34;5074022;28;19928;-78
2023/06/14 01:07:39;;;;;;;;;;;;;;;18.75;57.75;-18531.56;5076904;28;19924;-77
2023/06/14 01:10:23;;;;;;;;;;;;;;;18.73;58.19;-18531.03;5079729;28;19917;-76
2023/06/14 01:12:56;;;;;;;;;;;;;;;18.64;58.12;-18528.72;5074803;28;20501;-76
2023/06/14 01:15:22;;;;;;;;;;;;;;;18.58;59.12;-18527.06;5078065;28;19974;-77
2023/06/14 01:17:51;;;;;;;;;;;;;;;18.49;59.99;-18524.75;5078558;28;19917;-76
2023/06/14 01:20:17;;;;;;;;;;;;;;;18.44;60.08;-18523.25;5076060;28;19920;-78
2023/06/14 01:22:50;;;;;;;;;;;;;;;18.43;61.23;-18522.97;5078790;28;19920;-77
2023/06/14 01:25:16;;;;;;;;;;;;;;;18.39;60.52;-18521.91;5081906;28;19920;-77
2023/06/14 01:27:41;;;;;;;;;;;;;;;18.35;61.17;-18520.94;5081113;28;19939;-78
2023/06/14 01:30:07;;;;;;;;;;;;;;;18.31;61.23;-18519.84;5078832;28;19924;-77
2023/06/14 01:32:33;;;;;;;;;;;;;;;18.23;61.99;-18517.66;5082868;28;19917;-78
2023/06/14 01:34:58;;;;;;;;;;;;;;;18.11;62.80;-18514.53;5080304;28;19951;-77
2023/06/14 01:37:23;;;;;;;;;;;;;;;18.04;63.51;-18512.75;5078751;28;19954;-78
2023/06/14 01:39:50;;;;;;;;;;;;;;;18.06;64.86;-18513.16;5075785;28;19921;-77
2023/06/14 01:42:15;;;;;;;;;;;;;;;18.06;63.63;-18513.03;5078317;28;19920;-76
2023/06/14 01:44:42;;;;;;;;;;;;;;;17.99;64.75;-18511.25;5074149;28;20493;-77
2023/06/14 01:47:08;;;;;;;;;;;;;;;17.96;64.73;-18510.56;5072139;28;20031;-77
2023/06/14 01:49:36;;;;;;;;;;;;;;;17.86;65.62;-18507.84;5066755;28;20394;-77
2023/06/14 01:52:01;;;;;;;;;;;;;;;17.83;66.03;-18507.03;5072394;28;20176;-77
2023/06/14 01:54:27;;;;;;;;;;;;;;;17.81;66.74;-18506.47;5068999;28;19917;-77
2023/06/14 01:56:52;;;;;;;;;;;;;;;17.72;67.86;-18504.16;5071580;28;20375;-77
2023/06/14 01:59:17;;;;;;;;;;;;;;;17.67;68.04;-18502.66;5071967;28;19927;-76
2023/06/14 02:01:43;;;;;;;;;;;;;;;17.68;68.78;-18503.06;5071878;28;19920;-77
2023/06/14 02:04:08;;;;;;;;;;;;;;;17.62;68.22;-18501.28;5069675;28;19947;-78
2023/06/14 02:06:34;;;;;;;;;;;;;;;17.64;68.55;-18501.97;5064942;28;19968;-78
2023/06/14 02:09:00;;;;;;;;;;;;;;;17.67;68.70;-18502.66;5077702;28;19920;-78
2023/06/14 02:11:26;;;;;;;;;;;;;;;17.59;68.99;-18500.59;5066640;28;19916;-78
2023/06/14 02:13:52;;;;;;;;;;;;;;;17.46;69.74;-18497.06;5065322;28;19916;-78
2023/06/14 02:16:17;;;;;;;;;;;;;;;17.53;70.64;-18498.97;5065095;28;19923;-78
2023/06/14 02:18:43;;;;;;;;;;;;;;;17.44;70.10;-18496.66;5066922;28;19917;-78
2023/06/14 02:21:08;;;;;;;;;;;;;;;17.46;71.55;-18497.19;5080838;28;20434;-77
2023/06/14 02:23:33;;;;;;;;;;;;;;;17.37;71.10;-18494.88;5065243;28;19923;-78
2023/06/14 02:25:58;;;;;;;;;;;;;;;17.45;70.95;-18496.91;5063766;28;20738;-78
2023/06/14 02:28:24;;;;;;;;;;;;;;;17.44;70.87;-18496.66;5060216;28;19960;-78
2023/06/14 02:30:49;;;;;;;;;;;;;;;17.56;70.92;-18499.78;5066860;28;20115;-78
2023/06/14 02:33:15;;;;;;;;;;;;;;;17.59;69.88;-18500.75;5065483;28;19928;-78
2023/06/14 02:35:40;;;;;;;;;;;;;;;17.60;70.24;-18500.88;5062873;28;19994;-78
2023/06/14 02:38:05;;;;;;;;;;;;;;;17.52;70.95;-18498.69;5064518;28;19921;-77
2023/06/14 02:40:31;;;;;;;;;;;;;;;17.41;71.70;-18495.69;5063529;28;20024;-78
2023/06/14 02:42:56;;;;;;;;;;;;;;;17.47;70.76;-18497.34;5065842;28;19952;-77
2023/06/14 02:45:21;;;;;;;;;;;;;;;17.42;71.22;-18496.09;5065406;28;19929;-78
2023/06/14 02:47:46;;;;;;;;;;;;;;;17.35;72.16;-18494.34;5064450;28;20356;-78
2023/06/14 02:50:12;;;;;;;;;;;;;;;17.29;73.51;-18492.69;5059884;28;19928;-78
2023/06/14 02:52:37;;;;;;;;;;;;;;;17.29;74.09;-18492.69;5062886;28;19931;-78
2023/06/14 02:55:03;;;;;;;;;;;;;;;17.31;73.48;-18493.25;5065630;28;19917;-78
2023/06/14 02:57:28;;;;;;;;;;;;;;;17.29;73.10;-18492.56;5061916;28;20430;-78
2023/06/14 02:59:53;;;;;;;;;;;;;;;17.26;73.95;-18491.88;5063305;28;21820;-77
2023/06/14 03:02:18;;;;;;;;;;;;;;;17.26;74.69;-18491.88;5063397;28;20333;-78
2023/06/14 03:04:44;;;;;;;;;;;;;;;17.18;75.48;-18489.69;5064138;28;20495;-78
2023/06/14 03:07:10;;;;;;;;;;;;;;;17.21;75.73;-18490.50;5063953;28;19920;-78
2023/06/14 03:09:36;;;;;;;;;;;;;;;17.18;75.33;-18489.69;5061998;28;19916;-78
2023/06/14 03:12:02;;;;;;;;;;;;;;;17.18;75.98;-18489.69;5063168;28;19924;-79
2023/06/14 03:14:29;;;;;;;;;;;;;;;17.12;76.24;-18488.19;5063638;28;19920;-78
2023/06/14 03:16:56;;;;;;;;;;;;;;;17.00;77.21;-18484.91;5065016;28;21216;-78
2023/06/14 03:19:21;;;;;;;;;;;;;;;17.07;76.58;-18486.69;5062470;28;19928;-78
2023/06/14 03:21:47;;;;;;;;;;;;;;;17.13;76.64;-18488.47;5063833;28;19928;-78
2023/06/14 03:24:12;;;;;;;;;;;;;;;17.12;76.43;-18488.06;5064552;28;19917;-78
2023/06/14 03:26:37;;;;;;;;;;;;;;;17.13;76.74;-18488.31;5062952;28;20528;-78
2023/06/14 03:29:03;;;;;;;;;;;;;;;17.03;78.25;-18485.72;5060657;28;19924;-79
2023/06/14 03:31:32;;;;;;;;;;;;;;;16.96;78.94;-18483.81;5063972;28;19974;-79
2023/06/14 03:33:57;;;;;;;;;;;;;;;16.96;78.94;-18483.81;5061975;28;19920;-78
2023/06/14 03:36:22;;;;;;;;;;;;;;;17.06;78.92;-18486.41;5062655;28;20024;-78
2023/06/14 03:38:48;;;;;;;;;;;;;;;17.01;78.71;-18485.19;5063470;28;19921;-78
2023/06/14 03:41:13;;;;;;;;;;;;;;;17.06;78.46;-18486.56;5062521;28;19921;-77
2023/06/14 03:43:38;;;;;;;;;;;;;;;17.15;77.74;-18488.88;5057939;28;19999;-78
2023/06/14 03:46:03;;;;;;;;;;;;;;;17.17;77.69;-18489.41;5061749;28;20287;-78
2023/06/14 03:48:29;;;;;;;;;;;;;;;17.07;78.01;-18486.69;5056281;28;20019;-76
2023/06/14 03:50:55;;;;;;;;;;;;;;;17.10;78.64;-18487.50;5061555;28;20051;-77
2023/06/14 03:53:23;;;;;;;;;;;;;;;17.20;78.46;-18490.09;5059862;28;20443;-77
2023/06/14 03:55:48;;;;;;;;;;;;;;;17.10;78.52;-18487.50;5063575;28;20303;-78
2023/06/14 03:58:14;;;;;;;;;;;;;;;16.98;79.87;-18484.38;5059937;28;19927;-78
2023/06/14 04:00:40;;;;;;;;;;;;;;;17.03;80.03;-18485.59;5059183;28;19924;-78
2023/06/14 04:03:05;;;;;;;;;;;;;;;17.01;80.47;-18485.19;5063458;28;19921;-76
2023/06/14 04:05:31;;;;;;;;;;;;;;;17.04;80.98;-18486.00;5063334;28;19978;-77
2023/06/14 04:07:56;;;;;;;;;;;;;;;17.12;81.30;-18488.06;5058203;28;20511;-77
2023/06/14 04:10:22;;;;;;;;;;;;;;;17.08;80.86;-18486.97;5062990;28;19920;-77
2023/06/14 04:12:47;;;;;;;;;;;;;;;17.10;81.06;-18487.50;5064774;28;20015;-77
2023/06/14 04:15:13;;;;;;;;;;;;;;;17.08;81.39;-18486.97;5060320;28;19970;-76
2023/06/14 04:17:38;;;;;;;;;;;;;;;17.08;82.05;-18486.97;5061810;28;20015;-76
2023/06/14 04:20:06;;;;;;;;;;;;;;;16.90;84.09;-18482.19;5059696;28;20007;-77
2023/06/14 04:22:31;;;;;;;;;;;;;;;17.11;83.01;-18487.91;5062650;28;19925;-76
2023/06/14 04:24:56;;;;;;;;;;;;;;;17.18;82.60;-18489.56;5064223;28;19931;-76
2023/06/14 04:27:30;;;;;;;;;;;;;;;17.09;82.97;-18487.38;5059556;28;19925;-76
2023/06/14 04:30:02;;;;;;;;;;;;;;;17.17;83.07;-18489.28;5066567;28;19920;-76
2023/06/14 04:32:29;;;;;;;;;;;;;;;17.13;83.58;-18488.31;5059424;28;19989;-76
2023/06/14 04:34:54;;;;;;;;;;;;;;;17.19;84.30;-18489.97;5068514;28;19925;-77
2023/06/14 04:37:22;;;;;;;;;;;;;;;17.28;83.04;-18492.41;5066432;28;20307;-76
2023/06/14 04:39:48;;;;;;;;;;;;;;;17.39;83.65;-18495.16;5067854;28;20733;-76
2023/06/14 04:42:14;;;;;;;;;;;;;;;17.41;83.40;-18495.69;5063804;28;20062;-77
2023/06/14 04:44:40;;;;;;;;;;;;;;;17.39;83.46;-18495.16;5079935;28;19916;-77
2023/06/14 04:47:06;;;;;;;;;;;;;;;17.49;83.14;-18497.88;5065401;28;19935;-76
2023/06/14 04:49:33;;;;;;;;;;;;;;;17.58;82.46;-18500.47;5072388;28;19916;-77
2023/06/14 04:52:01;;;;;;;;;;;;;;;17.66;82.21;-18502.38;5066702;28;20015;-77
2023/06/14 04:54:26;;;;;;;;;;;;;;;17.69;81.74;-18503.34;5060231;28;20007;-77
2023/06/14 04:56:53;;;;;;;;;;;;;;;17.77;81.80;-18505.38;5067395;28;20011;-77
2023/06/14 04:59:18;;;;;;;;;;;;;;;17.83;81.84;-18507.03;5055857;28;19956;-76
2023/06/14 05:01:48;;;;;;;;;;;;;;;17.99;80.65;-18511.25;5061317;28;20006;-77
2023/06/14 05:04:16;;;;;;;;;;;;;;;18.11;79.40;-18514.53;5063941;28;20296;-77
2023/06/14 05:06:44;;;;;;;;;;;;;;;18.06;80.03;-18513.03;5061543;28;20011;-76
2023/06/14 05:09:09;;;;;;;;;;;;;;;18.11;80.65;-18514.53;5063845;28;19928;-76
2023/06/14 05:11:35;;;;;;;;;;;;;;;18.22;79.48;-18517.53;5063821;28;19992;-77
2023/06/14 05:14:01;;;;;;;;;;;;;;;18.30;76.49;-18519.44;5062491;28;19917;-76
2023/06/14 05:16:27;;;;;;;;;;;;;;;18.66;74.43;-18529.25;5061535;28;20396;-77
2023/06/14 05:18:52;;;;;;;;;;;;;;;18.66;74.91;-18529.25;5064319;28;19932;-77
2023/06/14 05:21:18;;;;;;;;;;;;;;;18.81;72.54;-18533.22;5063670;28;20435;-77
2023/06/14 05:23:44;;;;;;;;;;;;;;;18.92;70.68;-18536.06;5067795;28;20019;-77
2023/06/14 05:26:10;;;;;;;;;;;;;;;19.03;70.24;-18538.94;5066369;28;19944;-77
2023/06/14 05:28:36;;;;;;;;;;;;;;;19.00;70.68;-18538.25;5064232;28;20363;-77
2023/06/14 05:31:01;;;;;;;;;;;;;;;19.03;70.53;-18538.94;5059150;28;19970;-78
2023/06/14 05:33:26;;;;;;;;;;;;;;;19.13;69.45;-18541.81;5064860;28;19925;-76
2023/06/14 05:35:51;;;;;;;;;;;;;;;19.21;69.15;-18543.84;5065134;28;19916;-75
2023/06/14 05:38:17;;;;;;;;;;;;;;;19.42;68.61;-18549.44;5062625;28;19943;-75
2023/06/14 05:40:42;;;;;;;;;;;;;;;19.61;66.54;-18554.47;5068383;28;20003;-75
2023/06/14 05:43:07;;;;;;;;;;;;;;;19.67;64.47;-18555.97;5068785;28;20375;-75
2023/06/14 05:45:32;;;;;;;;;;;;;;;19.77;63.73;-18558.84;5068427;28;19927;-76
2023/06/14 05:47:58;;;;;;;;;;;;;;;19.80;63.97;-18559.50;5069428;28;19922;-76
2023/06/14 05:50:23;;;;;;;;;;;;;;;19.71;63.77;-18557.06;5062107;28;19999;-76
2023/06/14 05:52:48;;;;;;;;;;;;;;;19.85;62.94;-18560.88;5069097;28;19917;-76
2023/06/14 05:55:13;;;;;;;;;;;;;;;20.00;61.90;-18564.81;5069627;28;19916;-76
2023/06/14 05:57:39;;;;;;;;;;;;;;;20.12;61.56;-18567.97;5068224;28;19916;-76
2023/06/14 06:00:15;;;;;;;;;;;;;;;20.20;61.58;-18570.28;5068818;28;19916;-76
2023/06/14 06:02:43;;;;;;;;;;;;;;;20.27;59.64;-18572.03;5066913;28;19924;-76
2023/06/14 06:05:08;;;;;;;;;;;;;;;20.39;57.33;-18575.31;5068404;28;19932;-76
2023/06/14 06:07:33;;;;;;;;;;;;;;;20.39;56.84;-18575.16;5067878;28;19925;-76
2023/06/14 06:09:59;;;;;;;;;;;;;;;20.48;57.10;-18577.63;5068314;28;19978;-76
2023/06/14 06:12:24;;;;;;;;;;;;;;;20.57;56.88;-18579.94;5068244;28;19916;-76
2023/06/14 06:14:49;;;;;;;;;;;;;;;20.74;55.70;-18584.56;5068834;28;19982;-76
2023/06/14 06:17:14;;;;;;;;;;;;;;;20.89;54.87;-18588.50;5069168;28;19970;-77
2023/06/14 06:19:40;;;;;;;;;;;;;;;20.80;53.81;-18586.19;5068290;28;19916;-76
2023/06/14 06:22:06;;;;;;;;;;;;;;;20.95;53.07;-18590.13;5067352;28;19921;-77
2023/06/14 06:24:31;;;;;;;;;;;;;;;20.95;52.73;-18590.28;5061559;28;19920;-77
2023/06/14 06:26:56;;;;;;;;;;;;;;;20.91;53.15;-18589.19;5068417;28;20368;-77
2023/06/14 06:29:21;;;;;;;;;;;;;;;21.16;53.30;-18595.72;5066513;28;19916;-77
2023/06/14 06:31:47;;;;;;;;;;;;;;;21.22;53.20;-18597.34;5065086;28;19975;-76
2023/06/14 06:34:12;;;;;;;;;;;;;;;21.36;52.41;-18601.16;5061775;28;19994;-76
2023/06/14 06:36:37;;;;;;;;;;;;;;;21.51;52.59;-18604.97;5059448;28;19998;-77
2023/06/14 06:39:09;;;;;;;;;;;;;;;21.61;52.06;-18607.81;5063337;28;19916;-77
2023/06/14 06:41:37;;;;;;;;;;;;;;;21.56;52.11;-18606.31;5068310;28;19920;-77
2023/06/14 06:44:02;;;;;;;;;;;;;;;21.79;51.45;-18612.56;5067164;28;19939;-77
2023/06/14 06:46:27;;;;;;;;;;;;;;;21.96;49.53;-18616.91;5065639;28;20390;-77
2023/06/14 06:48:53;;;;;;;;;;;;;;;21.93;49.27;-18616.25;5062864;28;20137;-77
2023/06/14 06:51:18;;;;;;;;;;;;;;;21.85;49.07;-18614.19;5068827;28;19932;-77
2023/06/14 06:53:51;;;;;;;;;;;;;;;21.90;49.15;-18615.28;5068063;28;19924;-77
2023/06/14 06:56:17;;;;;;;;;;;;;;;21.81;49.27;-18613.13;5066907;28;19920;-77
2023/06/14 06:58:42;;;;;;;;;;;;;;;;;;5062722;28;19920;-77
2023/06/14 07:01:09;;;;;;;;;;;;;;;21.86;49.99;-18614.47;5069213;28;20391;-77
2023/06/14 07:03:34;;;;;;;;;;;;;;;22.06;50.28;-18619.63;5068287;28;19966;-77
2023/06/14 07:05:59;;;;;;;;;;;;;;;22.22;47.88;-18623.84;5058510;28;19925;-77
2023/06/14 07:08:24;;;;;;;;;;;;;;;22.33;48.04;-18626.84;5065153;28;20387;-77
2023/06/14 07:10:50;;;;;;;;;;;;;;;22.30;47.32;-18626.16;5059878;28;20458;-77
2023/06/14 07:13:15;;;;;;;;;;;;;;;22.19;48.05;-18623.03;5067409;28;19927;-77
2023/06/14 07:15:40;;;;;;;;;;;;;;;22.32;48.15;-18626.56;5065587;28;19931;-77
2023/06/14 07:18:06;;;;;;;;;;;;;;;22.33;46.86;-18626.69;5063682;28;19924;-77
2023/06/14 07:20:32;;;;;;;;;;;;;;;22.43;47.29;-18629.41;5064403;28;19917;-77
2023/06/14 07:22:58;;;;;;;;;;;;;;;22.64;47.50;-18635.13;5063373;28;20519;-77
2023/06/14 07:25:23;;;;;;;;;;;;;;;22.66;47.07;-18635.66;5065203;28;19920;-77
2023/06/14 07:27:48;;;;;;;;;;;;;;;22.82;46.80;-18639.72;5064729;28;20207;-77
2023/06/14 07:30:14;;;;;;;;;;;;;;;22.93;46.28;-18642.84;5065344;28;19952;-77
2023/06/14 07:32:39;;;;;;;;;;;;;;;22.98;45.09;-18644.06;5063044;28;19921;-76
2023/06/14 07:35:05;;;;;;;;;;;;;;;23.01;44.55;-18644.91;5062128;28;19927;-77
2023/06/14 07:37:30;;;;;;;;;;;;;;;22.92;45.37;-18642.44;5064755;28;19923;-77
2023/06/14 07:39:56;;;;;;;;;;;;;;;23.01;45.38;-18644.91;5067872;28;19924;-77
2023/06/14 07:42:21;;;;;;;;;;;;;;;23.09;45.26;-18646.94;5072777;28;19920;-77
2023/06/14 07:44:46;;;;;;;;;;;;;;;22.93;45.16;-18642.72;5066163;28;19952;-77
2023/06/14 07:47:12;;;;;;;;;;;;;;;22.74;46.01;-18637.84;5069307;28;19916;-77
2023/06/14 07:49:37;;;;;;;;;;;;;;;22.92;46.33;-18642.59;5069916;28;20307;-77
2023/06/14 07:52:02;;;;;;;;;;;;;;;23.08;45.23;-18646.78;5071645;28;20311;-77
2023/06/14 07:54:28;;;;;;;;;;;;;;;23.09;44.83;-18647.06;5064032;28;19922;-76
2023/06/14 07:56:53;;;;;;;;;;;;;;;23.22;43.89;-18650.47;5067601;28;19924;-77
2023/06/14 07:59:19;;;;;;;;;;;;;;;23.28;43.13;-18651.94;5069003;28;19916;-76
2023/06/14 08:01:46;;;;;;;;;;;;;;;23.24;43.02;-18650.88;5067641;28;19917;-76
2023/06/14 08:04:15;;;;;;;;;;;;;;;23.38;43.48;-18654.78;5069451;28;19923;-80
2023/06/14 08:06:43;;;;;;;;;;;;;;;23.59;43.31;-18660.34;5068265;28;19940;-79
2023/06/14 08:09:09;;;;;;;;;;;;;;;23.65;42.35;-18662.00;5068613;28;20406;-78
2023/06/14 08:11:34;;;;;;;;;;;;;;;23.57;41.18;-18659.69;5063232;28;19947;-77
2023/06/14 08:13:59;;;;;;;;;;;;;;;23.74;41.90;-18664.16;5066585;28;20481;-77
2023/06/14 08:16:25;;;;;;;;;;;;;;;23.81;41.28;-18666.06;5068462;28;19921;-77
2023/06/14 08:18:50;;;;;;;;;;;;;;;23.75;41.56;-18664.44;5067516;28;19970;-77
2023/06/14 08:21:15;;;;;;;;;;;;;;;23.88;41.28;-18667.97;5067690;28;20315;-77
2023/06/14 08:23:42;;;;;;;;;;;;;;;23.96;42.51;-18670.13;5060820;28;19928;-77
2023/06/14 08:26:08;;;;;;;;;;;;;;;24.17;41.07;-18675.53;5062135;28;19936;-77
2023/06/14 08:28:33;;;;;;;;;;;;;;;24.14;40.79;-18674.72;5062980;28;20303;-77
2023/06/14 08:30:58;;;;;;;;;;;;;;;24.19;39.79;-18676.22;5067647;28;19929;-77
2023/06/14 08:33:24;;;;;;;;;;;;;;;24.15;39.20;-18675.13;5063703;28;19920;-76
2023/06/14 08:35:49;;;;;;;;;;;;;;;24.25;39.22;-18677.72;5083466;28;19920;-77
2023/06/14 08:38:14;;;;;;;;;;;;;;;24.42;38.78;-18682.19;5067664;28;19986;-77
2023/06/14 08:40:41;;;;;;;;;;;;;;;24.14;38.81;-18674.88;5065247;28;20480;-76
2023/06/14 08:43:07;;;;;;;;;;;;;;;24.07;39.39;-18673.09;5066325;28;20182;-76
2023/06/14 08:45:32;;;;;;;;;;;;;;;24.28;38.83;-18678.53;5066086;28;19924;-77
2023/06/14 08:47:59;;;;;;;;;;;;;;;24.39;37.97;-18681.38;5066905;28;20343;-76
2023/06/14 08:50:29;;;;;;;;;;;;;;;24.54;37.34;-18685.44;5065469;28;19916;-77
2023/06/14 08:52:57;;;;;;;;;;;;;;;24.37;36.97;-18680.97;5067008;28;20441;-77
2023/06/14 08:55:25;;;;;;;;;;;;;;;24.55;36.86;-18685.72;5065039;28;19920;-77
2023/06/14 08:57:51;;;;;;;;;;;;;;;24.76;35.88;-18691.41;5066265;28;19920;-77
2023/06/14 09:00:17;;;;;;;;;;;;;;;24.74;36.17;-18690.84;5082080;28;20299;-77
2023/06/14 09:02:43;;;;;;;;;;;;;;;24.57;35.83;-18686.13;5063979;28;19916;-77
2023/06/14 09:05:13;;;;;;;;;;;;;;;24.63;36.46;-18687.75;5067061;28;20822;-77
2023/06/14 09:07:40;;;;;;;;;;;;;;;24.63;37.21;-18687.75;5065169;28;19927;-77
2023/06/14 09:10:08;;;;;;;;;;;;;;;24.53;36.15;-18685.31;5067271;28;19921;-77
2023/06/14 09:12:33;;;;;;;;;;;;;;;24.58;35.64;-18686.38;5064363;28;19928;-77
2023/06/14 09:14:58;;;;;;;;;;;;;;;24.48;35.71;-18683.81;5067726;28;19917;-77
2023/06/14 09:17:23;;;;;;;;;;;;;;;24.69;35.82;-18689.38;5066402;28;20050;-77
2023/06/14 09:19:49;;;;;;;;;;;;;;;24.57;36.51;-18686.25;5064927;28;20502;-77
2023/06/14 09:22:16;;;;;;;;;;;;;;;24.75;35.84;-18691.00;5080626;28;20406;-77
2023/06/14 09:24:41;;;;;;;;;;;;;;;24.63;36.23;-18687.88;5066344;28;20395;-77
2023/06/14 09:27:07;;;;;;;;;;;;;;;24.79;36.61;-18691.94;5065966;28;19920;-77
2023/06/14 09:29:33;;;;;;;;;;;;;;;24.73;37.29;-18690.59;5065985;28;19920;-77
2023/06/14 09:31:58;;;;;;;;;;;;;;;24.82;36.78;-18692.75;5068126;28;20302;-76
2023/06/14 09:34:23;;;;;;;;;;;;;;;24.87;37.73;-18694.25;5060511;28;19924;-77
2023/06/14 09:36:49;;;;;;;;;;;;;;;24.85;37.20;-18693.69;5062532;28;19956;-77
2023/06/14 09:39:16;;;;;;;;;;;;;;;24.90;36.55;-18695.06;5062995;28;19916;-76
2023/06/14 09:41:43;;;;;;;;;;;;;;;24.92;37.51;-18695.47;5065245;28;19916;-77
2023/06/14 09:44:09;;;;;;;;;;;;;;;24.79;37.20;-18692.06;5062017;28;20034;-77
2023/06/14 09:46:35;;;;;;;;;;;;;;;24.91;37.98;-18695.31;5063894;28;20009;-77
2023/06/14 09:49:01;;;;;;;;;;;;;;;25.10;38.00;-18700.19;5066758;28;19977;-76
2023/06/14 09:51:27;;;;;;;;;;;;;;;25.03;37.14;-18698.31;5060156;28;20365;-76
2023/06/14 09:53:52;;;;;;;;;;;;;;;25.15;37.33;-18701.69;5066223;28;19920;-76
2023/06/14 09:56:47;;;;;;;;;;;;;;;25.20;36.76;-18702.91;5066017;28;19920;-76
2023/06/14 09:59:12;;;;;;;;;;;;;;;25.04;37.22;-18698.72;5045370;28;19916;-77
2023/06/14 10:01:42;;;;;;;;;;;;;;;25.10;37.00;-18700.19;5063635;28;20007;-77
2023/06/14 10:04:08;;;;;;;;;;;;;;;25.17;37.42;-18702.09;5061301;28;20430;-77
2023/06/14 10:06:36;;;;;;;;;;;;;;;25.25;37.51;-18704.25;5063598;28;19924;-77
2023/06/14 10:09:03;;;;;;;;;;;;;;;25.47;36.82;-18709.94;5064662;28;19999;-76
2023/06/14 10:11:29;;;;;;;;;;;;;;;25.54;36.90;-18711.84;5064511;28;19916;-77
2023/06/14 10:13:58;;;;;;;;;;;;;;;25.51;36.56;-18711.16;5066018;28;19936;-77
2023/06/14 10:16:26;;;;;;;;;;;;;;;25.48;36.68;-18710.34;5066241;28;20175;-76
2023/06/14 10:18:52;;;;;;;;;;;;;;;25.42;36.73;-18708.88;5063972;28;19924;-76
2023/06/14 10:21:17;;;;;;;;;;;;;;;25.52;36.83;-18711.31;5064963;28;19917;-76
2023/06/14 10:23:44;;;;;;;;;;;;;;;25.43;36.46;-18709.00;5064040;28;20003;-76
2023/06/14 10:26:17;;;;;;;;;;;;;;;25.21;36.54;-18703.31;5065526;28;19924;-76
2023/06/14 10:28:55;;;;;;;;;;;;;;;25.11;36.44;-18700.59;5063558;28;19916;-76
2023/06/14 10:31:20;;;;;;;;;;;;;;;25.38;37.43;-18707.78;5063218;28;19928;-76
2023/06/14 10:33:52;;;;;;;;;;;;;;;25.70;37.16;-18716.03;5063044;28;19924;-76
2023/06/14 10:36:28;;;;;;;;;;;;;;;25.76;36.04;-18717.78;5065686;28;19924;-76
2023/06/14 10:39:08;;;;;;;;;;;;;;;25.82;36.09;-18719.28;5063969;28;20356;-77
2023/06/14 10:41:37;;;;;;;;;;;;;;;25.80;36.42;-18718.75;5064175;28;19955;-77
2023/06/14 10:44:10;;;;;;;;;;;;;;;26.02;36.17;-18724.69;5063737;28;19920;-77
2023/06/14 10:46:35;;;;;;;;;;;;;;;25.98;35.83;-18723.63;5058990;28;19978;-77
2023/06/14 10:49:03;;;;;;;;;;;;;;;25.90;36.32;-18721.31;5061337;28;20302;-77
2023/06/14 10:51:30;;;;;;;;;;;;;;;26.04;36.43;-18725.09;5062543;28;20027;-77
2023/06/14 10:53:56;;;;;;;;;;;;;;;26.08;35.84;-18726.31;5063868;28;19924;-77
2023/06/14 10:56:28;;;;;;;;;;;;;;;25.89;35.63;-18721.19;5063922;28;19917;-77
2023/06/14 10:58:56;;;;;;;;;;;;;;;26.10;35.57;-18726.72;5055423;28;20067;-77
2023/06/14 11:01:28;;;;;;;;;;;;;;;26.18;34.95;-18728.75;5064068;28;19923;-77
2023/06/14 11:03:54;;;;;;;;;;;;;;;26.24;33.79;-18730.50;5045733;28;20314;-77
2023/06/14 11:06:23;;;;;;;;;;;;;;;25.96;34.49;-18722.94;5063456;28;19925;-77
2023/06/14 11:09:12;;;;;;;;;;;;;;;26.03;34.17;-18724.84;5062872;28;19920;-77
2023/06/14 11:11:38;;;;;;;;;;;;;;;25.87;34.61;-18720.78;5062128;28;20354;-76
2023/06/14 11:14:04;;;;;;;;;;;;;;;25.77;34.31;-18718.06;5071543;28;19966;-77
2023/06/14 11:16:32;;;;;;;;;;;;;;;25.95;34.39;-18722.81;5063497;28;20388;-76
2023/06/14 11:18:57;;;;;;;;;;;;;;;25.82;35.46;-18719.28;5062350;28;20215;-77
2023/06/14 11:21:25;;;;;;;;;;;;;;;26.05;35.10;-18725.50;5060741;28;19920;-77
2023/06/14 11:23:55;;;;;;;;;;;;;;;26.04;34.89;-18725.09;5060475;28;19970;-75
2023/06/14 11:26:27;;;;;;;;;;;;;;;26.13;34.36;-18727.41;5061062;28;19924;-76
2023/06/14 11:29:02;;;;;;;;;;;;;;;26.26;34.29;-18731.03;5061262;28;19917;-77
2023/06/14 11:31:27;;;;;;;;;;;;;;;26.31;35.23;-18732.41;5050574;28;20387;-77
2023/06/14 11:33:54;;;;;;;;;;;;;;;26.15;34.68;-18728.06;5063215;28;19940;-77
2023/06/14 11:36:19;;;;;;;;;;;;;;;26.37;35.13;-18733.75;5057780;28;19931;-77
2023/06/14 11:38:44;;;;;;;;;;;;;;;26.52;34.12;-18737.81;5063590;28;19917;-77
2023/06/14 11:41:10;;;;;;;;;;;;;;;26.75;33.68;-18743.88;5060471;28;19947;-77
2023/06/14 11:43:36;;;;;;;;;;;;;;;26.78;33.84;-18744.84;5065594;28;19921;-77
2023/06/14 11:46:01;;;;;;;;;;;;;;;26.92;33.91;-18748.34;5067209;28;19920;-77
2023/06/14 11:48:42;;;;;;;;;;;;;;;26.84;34.49;-18746.19;5059852;28;19916;-77
2023/06/14 11:51:07;;;;;;;;;;;;;;;26.82;34.29;-18745.78;5064309;28;20016;-77
2023/06/14 11:53:32;;;;;;;;;;;;;;;26.83;34.25;-18745.91;5061056;28;20362;-77
2023/06/14 11:55:58;;;;;;;;;;;;;;;26.67;33.55;-18741.88;5063230;28;19927;-77
2023/06/14 11:58:23;;;;;;;;;;;;;;;26.82;33.90;-18745.78;5065014;28;19970;-77
2023/06/14 12:00:49;;;;;;;;;;;;;;;26.79;33.76;-18744.97;5067059;28;20404;-77
2023/06/14 12:03:14;;;;;;;;;;;;;;;26.76;33.49;-18744.31;5060180;28;19944;-77
2023/06/14 12:05:39;;;;;;;;;;;;;;;26.59;34.18;-18739.56;5065466;28;21212;-77
2023/06/14 12:08:07;;;;;;;;;;;;;;;26.63;34.43;-18740.66;5066409;28;19970;-77
2023/06/14 12:10:40;;;;;;;;;;;;;;;26.52;34.62;-18737.81;5067291;28;20050;-77
2023/06/14 12:13:05;;;;;;;;;;;;;;;26.95;34.15;-18749.16;5067809;28;19921;-77
2023/06/14 12:15:31;;;;;;;;;;;;;;;26.99;33.36;-18750.25;5071032;28;19927;-77
2023/06/14 12:17:57;;;;;;;;;;;;;;;26.80;33.60;-18745.09;5067254;28;19969;-77
2023/06/14 12:20:23;;;;;;;;;;;;;;;26.99;33.59;-18750.25;5065797;28;19932;-77
2023/06/14 12:22:52;;;;;;;;;;;;;;;27.22;33.51;-18756.31;5065302;28;19916;-77
2023/06/14 12:25:28;;;;;;;;;;;;;;;27.28;32.90;-18757.94;5071699;28;20425;-77
2023/06/14 12:27:57;;;;;;;;;;;;;;;27.28;32.84;-18757.81;5067062;28;19979;-77
2023/06/14 12:30:22;;;;;;;;;;;;;;;27.62;33.83;-18767.00;5068466;28;20085;-77
2023/06/14 12:32:48;;;;;;;;;;;;;;;27.66;33.52;-18767.94;5066973;28;20429;-77
2023/06/14 12:35:13;;;;;;;;;;;;;;;27.65;33.99;-18767.81;5060117;28;19921;-77